sensor_id;sensor_type;location;lat;lon;timestamp;P1;durP1;ratioP1;P2;durP2;ratioP2
10729;SDS011;5416;59.258;18.128;2023-03-16T00:01:20;2.90;;;2.80;;
10729;SDS011;5416;59.258;18.128;2023-03-16T00:03:47;3.30;;;3.20;;
10729;SDS011;5416;59.258;18.128;2023-03-16T00:06:14;2.83;;;2.72;;
10729;SDS011;5416;59.258;18.128;2023-03-16T00:08:42;3.28;;;3.17;;
10729;SDS011;5416;59.258;18.128;2023-03-16T00:11:09;2.70;;;2.60;;
10729;SDS011;5416;59.258;18.128;2023-03-16T00:13:37;3.10;;;3.00;;
10729;SDS011;5416;59.258;18.128;2023-03-16T00:16:08;3.30;;;3.20;;
10729;SDS011;5416;59.258;18.128;2023-03-16T00:18:41;3.10;;;3.00;;
10729;SDS011;5416;59.258;18.128;2023-03-16T00:21:08;3.13;;;3.03;;
10729;SDS011;5416;59.258;18.128;2023-03-16T00:23:35;2.90;;;2.80;;
10729;SDS011;5416;59.258;18.128;2023-03-16T00:26:04;3.17;;;3.08;;
10729;SDS011;5416;59.258;18.128;2023-03-16T00:28:31;3.47;;;3.38;;
10729;SDS011;5416;59.258;18.128;2023-03-16T00:31:00;2.80;;;2.70;;
10729;SDS011;5416;59.258;18.128;2023-03-16T00:33:28;3.28;;;3.17;;
10729;SDS011;5416;59.258;18.128;2023-03-16T00:36:01;3.58;;;3.47;;
10729;SDS011;5416;59.258;18.128;2023-03-16T00:38:33;2.97;;;2.88;;
10729;SDS011;5416;59.258;18.128;2023-03-16T00:41:00;3.75;;;3.65;;
10729;SDS011;5416;59.258;18.128;2023-03-16T00:43:29;3.10;;;3.00;;
10729;SDS011;5416;59.258;18.128;2023-03-16T00:45:56;3.40;;;3.30;;
10729;SDS011;5416;59.258;18.128;2023-03-16T00:48:25;2.80;;;2.70;;
10729;SDS011;5416;59.258;18.128;2023-03-16T00:50:54;3.40;;;3.30;;
10729;SDS011;5416;59.258;18.128;2023-03-16T00:53:21;3.47;;;3.38;;
10729;SDS011;5416;59.258;18.128;2023-03-16T00:55:48;3.00;;;2.90;;
10729;SDS011;5416;59.258;18.128;2023-03-16T00:58:17;3.58;;;3.47;;
10729;SDS011;5416;59.258;18.128;2023-03-16T01:00:45;3.05;;;2.95;;
10729;SDS011;5416;59.258;18.128;2023-03-16T01:03:13;3.08;;;2.97;;
10729;SDS011;5416;59.258;18.128;2023-03-16T01:05:41;2.60;;;2.50;;
10729;SDS011;5416;59.258;18.128;2023-03-16T01:08:09;3.10;;;3.00;;
10729;SDS011;5416;59.258;18.128;2023-03-16T01:10:37;3.20;;;3.10;;
10729;SDS011;5416;59.258;18.128;2023-03-16T01:13:04;2.63;;;2.53;;
10729;SDS011;5416;59.258;18.128;2023-03-16T01:15:32;2.85;;;2.75;;
10729;SDS011;5416;59.258;18.128;2023-03-16T01:17:59;2.93;;;2.83;;
10729;SDS011;5416;59.258;18.128;2023-03-16T01:20:27;3.00;;;2.90;;
10729;SDS011;5416;59.258;18.128;2023-03-16T01:22:54;3.78;;;3.67;;
10729;SDS011;5416;59.258;18.128;2023-03-16T01:25:23;2.58;;;2.47;;
10729;SDS011;5416;59.258;18.128;2023-03-16T01:27:50;3.30;;;3.20;;
10729;SDS011;5416;59.258;18.128;2023-03-16T01:30:17;2.97;;;2.88;;
10729;SDS011;5416;59.258;18.128;2023-03-16T01:32:45;3.00;;;2.90;;
10729;SDS011;5416;59.258;18.128;2023-03-16T01:35:12;3.20;;;3.10;;
10729;SDS011;5416;59.258;18.128;2023-03-16T01:37:39;2.83;;;2.72;;
10729;SDS011;5416;59.258;18.128;2023-03-16T01:40:07;3.20;;;3.10;;
10729;SDS011;5416;59.258;18.128;2023-03-16T01:42:46;2.80;;;2.70;;
10729;SDS011;5416;59.258;18.128;2023-03-16T01:48:00;3.10;;;3.00;;
10729;SDS011;5416;59.258;18.128;2023-03-16T01:50:28;2.92;;;2.83;;
10729;SDS011;5416;59.258;18.128;2023-03-16T01:52:55;3.60;;;3.50;;
10729;SDS011;5416;59.258;18.128;2023-03-16T01:55:23;2.83;;;2.72;;
10729;SDS011;5416;59.258;18.128;2023-03-16T01:57:52;2.93;;;2.83;;
10729;SDS011;5416;59.258;18.128;2023-03-16T02:00:19;2.70;;;2.60;;
10729;SDS011;5416;59.258;18.128;2023-03-16T02:02:50;3.10;;;3.00;;
10729;SDS011;5416;59.258;18.128;2023-03-16T02:05:19;2.95;;;2.85;;
10729;SDS011;5416;59.258;18.128;2023-03-16T02:07:49;2.70;;;2.60;;
10729;SDS011;5416;59.258;18.128;2023-03-16T02:10:23;3.35;;;3.25;;
10729;SDS011;5416;59.258;18.128;2023-03-16T02:12:52;2.80;;;2.70;;
10729;SDS011;5416;59.258;18.128;2023-03-16T02:15:21;3.30;;;3.20;;
10729;SDS011;5416;59.258;18.128;2023-03-16T02:17:49;2.70;;;2.60;;
10729;SDS011;5416;59.258;18.128;2023-03-16T02:20:20;2.88;;;2.78;;
10729;SDS011;5416;59.258;18.128;2023-03-16T02:22:50;2.92;;;2.83;;
10729;SDS011;5416;59.258;18.128;2023-03-16T02:25:18;2.70;;;2.60;;
10729;SDS011;5416;59.258;18.128;2023-03-16T02:27:49;3.15;;;3.05;;
10729;SDS011;5416;59.258;18.128;2023-03-16T02:30:20;3.00;;;2.90;;
10729;SDS011;5416;59.258;18.128;2023-03-16T02:32:48;2.88;;;2.78;;
10729;SDS011;5416;59.258;18.128;2023-03-16T02:35:17;2.50;;;2.40;;
10729;SDS011;5416;59.258;18.128;2023-03-16T02:37:44;3.10;;;3.00;;
10729;SDS011;5416;59.258;18.128;2023-03-16T02:40:21;2.63;;;2.53;;
10729;SDS011;5416;59.258;18.128;2023-03-16T02:42:50;2.90;;;2.80;;
10729;SDS011;5416;59.258;18.128;2023-03-16T02:45:21;3.47;;;3.38;;
10729;SDS011;5416;59.258;18.128;2023-03-16T02:47:49;2.63;;;2.53;;
10729;SDS011;5416;59.258;18.128;2023-03-16T02:50:17;2.90;;;2.80;;
10729;SDS011;5416;59.258;18.128;2023-03-16T02:52:45;2.60;;;2.50;;
10729;SDS011;5416;59.258;18.128;2023-03-16T02:55:13;2.80;;;2.70;;
10729;SDS011;5416;59.258;18.128;2023-03-16T02:57:40;3.22;;;3.13;;
10729;SDS011;5416;59.258;18.128;2023-03-16T03:00:08;2.83;;;2.72;;
10729;SDS011;5416;59.258;18.128;2023-03-16T03:02:42;3.10;;;3.00;;
10729;SDS011;5416;59.258;18.128;2023-03-16T03:05:10;2.50;;;2.40;;
10729;SDS011;5416;59.258;18.128;2023-03-16T03:07:37;2.72;;;2.63;;
10729;SDS011;5416;59.258;18.128;2023-03-16T03:10:05;2.50;;;2.40;;
10729;SDS011;5416;59.258;18.128;2023-03-16T03:12:33;2.60;;;2.50;;
10729;SDS011;5416;59.258;18.128;2023-03-16T03:15:00;3.28;;;3.17;;
10729;SDS011;5416;59.258;18.128;2023-03-16T03:17:28;2.80;;;2.70;;
10729;SDS011;5416;59.258;18.128;2023-03-16T03:19:57;3.10;;;3.00;;
10729;SDS011;5416;59.258;18.128;2023-03-16T03:22:24;2.60;;;2.50;;
10729;SDS011;5416;59.258;18.128;2023-03-16T03:24:52;2.78;;;2.67;;
10729;SDS011;5416;59.258;18.128;2023-03-16T03:27:19;2.20;;;2.10;;
10729;SDS011;5416;59.258;18.128;2023-03-16T03:29:48;2.78;;;2.67;;
10729;SDS011;5416;59.258;18.128;2023-03-16T03:32:16;2.50;;;2.40;;
10729;SDS011;5416;59.258;18.128;2023-03-16T03:34:43;2.92;;;2.83;;
10729;SDS011;5416;59.258;18.128;2023-03-16T03:37:12;3.10;;;3.00;;
10729;SDS011;5416;59.258;18.128;2023-03-16T03:39:39;2.90;;;2.80;;
10729;SDS011;5416;59.258;18.128;2023-03-16T03:42:07;3.38;;;3.28;;
10729;SDS011;5416;59.258;18.128;2023-03-16T03:44:34;2.60;;;2.50;;
10729;SDS011;5416;59.258;18.128;2023-03-16T03:47:01;3.08;;;2.97;;
10729;SDS011;5416;59.258;18.128;2023-03-16T03:49:29;2.70;;;2.60;;
10729;SDS011;5416;59.258;18.128;2023-03-16T03:51:57;3.00;;;2.90;;
10729;SDS011;5416;59.258;18.128;2023-03-16T03:54:27;3.00;;;2.90;;
10729;SDS011;5416;59.258;18.128;2023-03-16T03:56:55;3.25;;;3.15;;
10729;SDS011;5416;59.258;18.128;2023-03-16T03:59:22;2.78;;;2.67;;
10729;SDS011;5416;59.258;18.128;2023-03-16T04:01:49;3.00;;;2.90;;
10729;SDS011;5416;59.258;18.128;2023-03-16T04:04:17;3.80;;;3.70;;
10729;SDS011;5416;59.258;18.128;2023-03-16T04:06:48;2.63;;;2.53;;
10729;SDS011;5416;59.258;18.128;2023-03-16T04:09:15;3.13;;;3.03;;
10729;SDS011;5416;59.258;18.128;2023-03-16T04:11:44;2.70;;;2.60;;
10729;SDS011;5416;59.258;18.128;2023-03-16T04:14:11;2.83;;;2.72;;
10729;SDS011;5416;59.258;18.128;2023-03-16T04:16:38;2.53;;;2.42;;
10729;SDS011;5416;59.258;18.128;2023-03-16T04:19:08;2.80;;;2.70;;
10729;SDS011;5416;59.258;18.128;2023-03-16T04:21:35;3.13;;;3.03;;
10729;SDS011;5416;59.258;18.128;2023-03-16T04:24:03;2.77;;;2.67;;
10729;SDS011;5416;59.258;18.128;2023-03-16T04:26:30;2.78;;;2.67;;
10729;SDS011;5416;59.258;18.128;2023-03-16T04:28:59;2.80;;;2.70;;
10729;SDS011;5416;59.258;18.128;2023-03-16T04:31:27;3.20;;;3.10;;
10729;SDS011;5416;59.258;18.128;2023-03-16T04:33:55;2.80;;;2.70;;
10729;SDS011;5416;59.258;18.128;2023-03-16T04:36:22;2.80;;;2.70;;
10729;SDS011;5416;59.258;18.128;2023-03-16T04:38:49;2.40;;;2.30;;
10729;SDS011;5416;59.258;18.128;2023-03-16T04:41:17;2.70;;;2.60;;
10729;SDS011;5416;59.258;18.128;2023-03-16T04:43:44;2.63;;;2.53;;
10729;SDS011;5416;59.258;18.128;2023-03-16T04:46:13;3.10;;;3.00;;
10729;SDS011;5416;59.258;18.128;2023-03-16T04:48:40;3.15;;;3.05;;
10729;SDS011;5416;59.258;18.128;2023-03-16T04:51:08;2.70;;;2.60;;
10729;SDS011;5416;59.258;18.128;2023-03-16T04:53:35;3.17;;;3.07;;
10729;SDS011;5416;59.258;18.128;2023-03-16T04:56:02;2.70;;;2.60;;
10729;SDS011;5416;59.258;18.128;2023-03-16T04:58:31;3.10;;;3.00;;
10729;SDS011;5416;59.258;18.128;2023-03-16T05:00:59;2.65;;;2.55;;
10729;SDS011;5416;59.258;18.128;2023-03-16T05:03:28;3.30;;;3.20;;
10729;SDS011;5416;59.258;18.128;2023-03-16T05:05:55;2.60;;;2.50;;
10729;SDS011;5416;59.258;18.128;2023-03-16T05:08:22;3.00;;;2.90;;
10729;SDS011;5416;59.258;18.128;2023-03-16T05:10:49;2.50;;;2.40;;
10729;SDS011;5416;59.258;18.128;2023-03-16T05:13:17;2.78;;;2.67;;
10729;SDS011;5416;59.258;18.128;2023-03-16T05:15:45;2.45;;;2.35;;
10729;SDS011;5416;59.258;18.128;2023-03-16T05:18:12;2.67;;;2.58;;
10729;SDS011;5416;59.258;18.128;2023-03-16T05:20:40;3.20;;;3.10;;
10729;SDS011;5416;59.258;18.128;2023-03-16T05:23:08;2.80;;;2.70;;
10729;SDS011;5416;59.258;18.128;2023-03-16T05:25:35;3.00;;;2.90;;
10729;SDS011;5416;59.258;18.128;2023-03-16T05:28:04;2.67;;;2.58;;
10729;SDS011;5416;59.258;18.128;2023-03-16T05:30:31;3.15;;;3.05;;
10729;SDS011;5416;59.258;18.128;2023-03-16T05:32:59;2.60;;;2.50;;
10729;SDS011;5416;59.258;18.128;2023-03-16T05:35:26;3.30;;;3.20;;
10729;SDS011;5416;59.258;18.128;2023-03-16T05:37:55;2.50;;;2.40;;
10729;SDS011;5416;59.258;18.128;2023-03-16T05:40:22;3.20;;;3.10;;
10729;SDS011;5416;59.258;18.128;2023-03-16T05:42:53;2.67;;;2.57;;
10729;SDS011;5416;59.258;18.128;2023-03-16T05:45:20;2.60;;;2.50;;
10729;SDS011;5416;59.258;18.128;2023-03-16T05:47:48;3.30;;;3.20;;
10729;SDS011;5416;59.258;18.128;2023-03-16T05:50:16;2.70;;;2.60;;
10729;SDS011;5416;59.258;18.128;2023-03-16T05:52:43;3.20;;;3.10;;
10729;SDS011;5416;59.258;18.128;2023-03-16T05:55:13;2.75;;;2.65;;
10729;SDS011;5416;59.258;18.128;2023-03-16T05:57:40;3.20;;;3.10;;
10729;SDS011;5416;59.258;18.128;2023-03-16T06:00:09;2.90;;;2.80;;
10729;SDS011;5416;59.258;18.128;2023-03-16T06:02:38;3.10;;;3.00;;
10729;SDS011;5416;59.258;18.128;2023-03-16T06:05:06;3.10;;;3.00;;
10729;SDS011;5416;59.258;18.128;2023-03-16T06:07:33;2.80;;;2.70;;
10729;SDS011;5416;59.258;18.128;2023-03-16T06:10:00;3.20;;;3.10;;
10729;SDS011;5416;59.258;18.128;2023-03-16T06:12:30;2.67;;;2.58;;
10729;SDS011;5416;59.258;18.128;2023-03-16T06:14:58;3.10;;;3.00;;
10729;SDS011;5416;59.258;18.128;2023-03-16T06:17:26;3.13;;;3.03;;
10729;SDS011;5416;59.258;18.128;2023-03-16T06:19:53;3.17;;;3.08;;
10729;SDS011;5416;59.258;18.128;2023-03-16T06:22:20;3.10;;;3.00;;
10729;SDS011;5416;59.258;18.128;2023-03-16T06:24:48;3.47;;;3.38;;
10729;SDS011;5416;59.258;18.128;2023-03-16T06:27:16;3.08;;;2.97;;
10729;SDS011;5416;59.258;18.128;2023-03-16T06:29:45;3.03;;;2.92;;
10729;SDS011;5416;59.258;18.128;2023-03-16T06:32:13;3.47;;;3.38;;
10729;SDS011;5416;59.258;18.128;2023-03-16T06:34:40;3.10;;;3.00;;
10729;SDS011;5416;59.258;18.128;2023-03-16T06:37:07;2.85;;;2.75;;
10729;SDS011;5416;59.258;18.128;2023-03-16T06:39:35;3.30;;;3.20;;
10729;SDS011;5416;59.258;18.128;2023-03-16T06:42:02;2.88;;;2.78;;
10729;SDS011;5416;59.258;18.128;2023-03-16T06:44:30;2.70;;;2.60;;
10729;SDS011;5416;59.258;18.128;2023-03-16T06:46:58;3.20;;;3.10;;
10729;SDS011;5416;59.258;18.128;2023-03-16T06:49:26;3.17;;;3.08;;
10729;SDS011;5416;59.258;18.128;2023-03-16T06:51:53;2.70;;;2.60;;
10729;SDS011;5416;59.258;18.128;2023-03-16T06:54:22;3.00;;;2.90;;
10729;SDS011;5416;59.258;18.128;2023-03-16T06:56:50;3.42;;;3.33;;
10729;SDS011;5416;59.258;18.128;2023-03-16T06:59:17;2.78;;;2.67;;
10729;SDS011;5416;59.258;18.128;2023-03-16T07:01:45;3.00;;;2.90;;
10729;SDS011;5416;59.258;18.128;2023-03-16T07:04:15;3.47;;;3.38;;
10729;SDS011;5416;59.258;18.128;2023-03-16T07:06:43;3.72;;;3.63;;
10729;SDS011;5416;59.258;18.128;2023-03-16T07:09:10;3.10;;;3.00;;
10729;SDS011;5416;59.258;18.128;2023-03-16T07:11:38;3.33;;;3.22;;
10729;SDS011;5416;59.258;18.128;2023-03-16T07:14:05;3.67;;;3.58;;
10729;SDS011;5416;59.258;18.128;2023-03-16T07:16:33;3.50;;;3.40;;
10729;SDS011;5416;59.258;18.128;2023-03-16T07:19:00;3.83;;;3.72;;
10729;SDS011;5416;59.258;18.128;2023-03-16T07:21:28;3.90;;;3.80;;
10729;SDS011;5416;59.258;18.128;2023-03-16T07:24:03;3.72;;;3.63;;
10729;SDS011;5416;59.258;18.128;2023-03-16T07:26:30;3.47;;;3.38;;
10729;SDS011;5416;59.258;18.128;2023-03-16T07:28:58;3.63;;;3.53;;
10729;SDS011;5416;59.258;18.128;2023-03-16T07:31:25;3.58;;;3.47;;
10729;SDS011;5416;59.258;18.128;2023-03-16T07:33:52;3.30;;;3.20;;
10729;SDS011;5416;59.258;18.128;2023-03-16T07:36:21;3.90;;;3.80;;
10729;SDS011;5416;59.258;18.128;2023-03-16T07:38:50;3.55;;;3.45;;
10729;SDS011;5416;59.258;18.128;2023-03-16T07:41:17;3.38;;;3.28;;
10729;SDS011;5416;59.258;18.128;2023-03-16T07:43:45;3.43;;;3.33;;
10729;SDS011;5416;59.258;18.128;2023-03-16T07:46:13;3.65;;;3.55;;
10729;SDS011;5416;59.258;18.128;2023-03-16T07:48:40;3.83;;;3.72;;
10729;SDS011;5416;59.258;18.128;2023-03-16T07:51:08;3.45;;;3.35;;
10729;SDS011;5416;59.258;18.128;2023-03-16T07:53:35;4.13;;;4.03;;
10729;SDS011;5416;59.258;18.128;2023-03-16T07:56:04;3.60;;;3.50;;
10729;SDS011;5416;59.258;18.128;2023-03-16T07:58:32;3.42;;;3.33;;
10729;SDS011;5416;59.258;18.128;2023-03-16T08:00:59;3.42;;;3.33;;
10729;SDS011;5416;59.258;18.128;2023-03-16T08:03:27;3.63;;;3.53;;
10729;SDS011;5416;59.258;18.128;2023-03-16T08:05:55;3.17;;;3.08;;
10729;SDS011;5416;59.258;18.128;2023-03-16T08:08:23;3.93;;;3.83;;
10729;SDS011;5416;59.258;18.128;2023-03-16T08:10:50;4.03;;;3.92;;
10729;SDS011;5416;59.258;18.128;2023-03-16T08:13:19;3.87;;;3.77;;
10729;SDS011;5416;59.258;18.128;2023-03-16T08:15:47;3.60;;;3.50;;
10729;SDS011;5416;59.258;18.128;2023-03-16T08:18:20;4.03;;;3.92;;
10729;SDS011;5416;59.258;18.128;2023-03-16T08:20:48;3.65;;;3.55;;
10729;SDS011;5416;59.258;18.128;2023-03-16T08:23:16;3.38;;;3.28;;
10729;SDS011;5416;59.258;18.128;2023-03-16T08:25:43;3.45;;;3.35;;
10729;SDS011;5416;59.258;18.128;2023-03-16T08:28:12;3.53;;;3.42;;
10729;SDS011;5416;59.258;18.128;2023-03-16T08:30:44;3.60;;;3.50;;
10729;SDS011;5416;59.258;18.128;2023-03-16T08:33:12;3.47;;;3.38;;
10729;SDS011;5416;59.258;18.128;2023-03-16T08:35:40;3.88;;;3.78;;
10729;SDS011;5416;59.258;18.128;2023-03-16T08:38:09;3.88;;;3.78;;
10729;SDS011;5416;59.258;18.128;2023-03-16T08:40:36;3.87;;;3.77;;
10729;SDS011;5416;59.258;18.128;2023-03-16T08:43:05;3.45;;;3.35;;
10729;SDS011;5416;59.258;18.128;2023-03-16T08:45:33;3.75;;;3.65;;
10729;SDS011;5416;59.258;18.128;2023-03-16T08:48:02;3.63;;;3.53;;
10729;SDS011;5416;59.258;18.128;2023-03-16T08:50:29;3.83;;;3.72;;
10729;SDS011;5416;59.258;18.128;2023-03-16T08:52:57;3.85;;;3.75;;
10729;SDS011;5416;59.258;18.128;2023-03-16T08:55:25;3.65;;;3.55;;
10729;SDS011;5416;59.258;18.128;2023-03-16T08:57:53;4.00;;;3.90;;
10729;SDS011;5416;59.258;18.128;2023-03-16T09:00:20;3.90;;;3.80;;
10729;SDS011;5416;59.258;18.128;2023-03-16T09:02:51;3.75;;;3.65;;
10729;SDS011;5416;59.258;18.128;2023-03-16T09:05:21;3.70;;;3.60;;
10729;SDS011;5416;59.258;18.128;2023-03-16T09:07:49;3.70;;;3.60;;
10729;SDS011;5416;59.258;18.128;2023-03-16T09:10:17;3.72;;;3.63;;
10729;SDS011;5416;59.258;18.128;2023-03-16T09:12:47;3.85;;;3.75;;
10729;SDS011;5416;59.258;18.128;2023-03-16T09:15:14;4.07;;;3.97;;
10729;SDS011;5416;59.258;18.128;2023-03-16T09:17:42;3.93;;;3.83;;
10729;SDS011;5416;59.258;18.128;2023-03-16T09:20:10;3.45;;;3.35;;
10729;SDS011;5416;59.258;18.128;2023-03-16T09:22:39;3.80;;;3.70;;
10729;SDS011;5416;59.258;18.128;2023-03-16T09:25:07;4.03;;;3.92;;
10729;SDS011;5416;59.258;18.128;2023-03-16T09:27:35;4.03;;;3.92;;
10729;SDS011;5416;59.258;18.128;2023-03-16T09:30:03;4.10;;;4.00;;
10729;SDS011;5416;59.258;18.128;2023-03-16T09:32:30;3.90;;;3.80;;
10729;SDS011;5416;59.258;18.128;2023-03-16T09:34:57;3.65;;;3.55;;
10729;SDS011;5416;59.258;18.128;2023-03-16T09:37:25;3.80;;;3.70;;
10729;SDS011;5416;59.258;18.128;2023-03-16T09:39:53;3.90;;;3.80;;
10729;SDS011;5416;59.258;18.128;2023-03-16T09:42:23;4.00;;;3.90;;
10729;SDS011;5416;59.258;18.128;2023-03-16T09:44:55;3.80;;;3.70;;
10729;SDS011;5416;59.258;18.128;2023-03-16T09:47:26;3.45;;;3.35;;
10729;SDS011;5416;59.258;18.128;2023-03-16T09:49:55;3.80;;;3.70;;
10729;SDS011;5416;59.258;18.128;2023-03-16T09:52:24;3.83;;;3.72;;
10729;SDS011;5416;59.258;18.128;2023-03-16T09:54:57;4.10;;;4.00;;
10729;SDS011;5416;59.258;18.128;2023-03-16T09:57:26;4.03;;;3.93;;
10729;SDS011;5416;59.258;18.128;2023-03-16T09:59:54;3.42;;;3.33;;
10729;SDS011;5416;59.258;18.128;2023-03-16T10:02:31;3.95;;;3.85;;
10729;SDS011;5416;59.258;18.128;2023-03-16T10:05:06;4.40;;;4.30;;
10729;SDS011;5416;59.258;18.128;2023-03-16T10:07:36;3.58;;;3.47;;
10729;SDS011;5416;59.258;18.128;2023-03-16T10:10:16;4.30;;;4.20;;
10729;SDS011;5416;59.258;18.128;2023-03-16T10:12:48;4.75;;;4.55;;
10729;SDS011;5416;59.258;18.128;2023-03-16T10:15:17;4.00;;;3.90;;
10729;SDS011;5416;59.258;18.128;2023-03-16T10:17:46;3.60;;;3.50;;
10729;SDS011;5416;59.258;18.128;2023-03-16T10:20:17;3.85;;;3.75;;
10729;SDS011;5416;59.258;18.128;2023-03-16T10:22:45;4.38;;;4.28;;
10729;SDS011;5416;59.258;18.128;2023-03-16T10:25:17;4.45;;;4.35;;
10729;SDS011;5416;59.258;18.128;2023-03-16T10:27:46;3.63;;;3.53;;
10729;SDS011;5416;59.258;18.128;2023-03-16T10:30:18;3.75;;;3.65;;
10729;SDS011;5416;59.258;18.128;2023-03-16T10:32:46;3.40;;;3.30;;
10729;SDS011;5416;59.258;18.128;2023-03-16T10:35:17;4.10;;;4.00;;
10729;SDS011;5416;59.258;18.128;2023-03-16T10:37:46;3.88;;;3.78;;
10729;SDS011;5416;59.258;18.128;2023-03-16T10:40:15;3.97;;;3.87;;
10729;SDS011;5416;59.258;18.128;2023-03-16T10:42:44;3.65;;;3.55;;
10729;SDS011;5416;59.258;18.128;2023-03-16T10:45:18;3.70;;;3.60;;
10729;SDS011;5416;59.258;18.128;2023-03-16T10:47:46;3.60;;;3.50;;
10729;SDS011;5416;59.258;18.128;2023-03-16T10:50:14;4.07;;;3.97;;
10729;SDS011;5416;59.258;18.128;2023-03-16T10:52:42;4.10;;;4.00;;
10729;SDS011;5416;59.258;18.128;2023-03-16T10:55:14;3.80;;;3.70;;
10729;SDS011;5416;59.258;18.128;2023-03-16T10:57:47;3.83;;;3.72;;
10729;SDS011;5416;59.258;18.128;2023-03-16T11:00:15;3.90;;;3.80;;
10729;SDS011;5416;59.258;18.128;2023-03-16T11:02:45;3.90;;;3.80;;
10729;SDS011;5416;59.258;18.128;2023-03-16T11:05:14;4.07;;;3.97;;
10729;SDS011;5416;59.258;18.128;2023-03-16T11:07:48;4.07;;;3.97;;
10729;SDS011;5416;59.258;18.128;2023-03-16T11:13:03;3.95;;;3.85;;
10729;SDS011;5416;59.258;18.128;2023-03-16T11:15:35;4.00;;;3.90;;
10729;SDS011;5416;59.258;18.128;2023-03-16T11:18:02;4.00;;;3.90;;
10729;SDS011;5416;59.258;18.128;2023-03-16T11:20:30;4.20;;;4.10;;
10729;SDS011;5416;59.258;18.128;2023-03-16T11:22:59;3.92;;;3.83;;
10729;SDS011;5416;59.258;18.128;2023-03-16T11:25:27;3.75;;;3.65;;
10729;SDS011;5416;59.258;18.128;2023-03-16T11:27:56;3.90;;;3.80;;
10729;SDS011;5416;59.258;18.128;2023-03-16T11:30:29;4.13;;;4.03;;
10729;SDS011;5416;59.258;18.128;2023-03-16T11:33:00;4.28;;;4.18;;
10729;SDS011;5416;59.258;18.128;2023-03-16T11:35:29;4.20;;;4.10;;
10729;SDS011;5416;59.258;18.128;2023-03-16T11:38:04;3.58;;;3.47;;
10729;SDS011;5416;59.258;18.128;2023-03-16T11:40:36;3.90;;;3.80;;
10729;SDS011;5416;59.258;18.128;2023-03-16T11:43:08;4.30;;;4.20;;
10729;SDS011;5416;59.258;18.128;2023-03-16T11:45:40;3.72;;;3.63;;
10729;SDS011;5416;59.258;18.128;2023-03-16T11:48:22;4.25;;;4.15;;
10729;SDS011;5416;59.258;18.128;2023-03-16T11:50:57;3.67;;;3.57;;
10729;SDS011;5416;59.258;18.128;2023-03-16T11:53:34;3.67;;;3.58;;
10729;SDS011;5416;59.258;18.128;2023-03-16T11:56:10;4.05;;;3.95;;
10729;SDS011;5416;59.258;18.128;2023-03-16T11:58:42;4.75;;;4.55;;
10729;SDS011;5416;59.258;18.128;2023-03-16T12:01:17;4.07;;;3.97;;
10729;SDS011;5416;59.258;18.128;2023-03-16T12:03:52;4.15;;;4.05;;
10729;SDS011;5416;59.258;18.128;2023-03-16T12:06:26;4.00;;;3.90;;
10729;SDS011;5416;59.258;18.128;2023-03-16T12:09:03;3.88;;;3.78;;
10729;SDS011;5416;59.258;18.128;2023-03-16T12:11:35;3.83;;;3.73;;
10729;SDS011;5416;59.258;18.128;2023-03-16T12:14:07;3.65;;;3.55;;
10729;SDS011;5416;59.258;18.128;2023-03-16T12:16:43;4.25;;;4.15;;
10729;SDS011;5416;59.258;18.128;2023-03-16T12:19:13;3.83;;;3.72;;
10729;SDS011;5416;59.258;18.128;2023-03-16T12:21:42;4.07;;;3.97;;
10729;SDS011;5416;59.258;18.128;2023-03-16T12:24:13;4.80;;;4.60;;
10729;SDS011;5416;59.258;18.128;2023-03-16T12:26:42;4.00;;;3.90;;
10729;SDS011;5416;59.258;18.128;2023-03-16T12:29:13;4.03;;;3.92;;
10729;SDS011;5416;59.258;18.128;2023-03-16T12:31:43;4.25;;;4.15;;
10729;SDS011;5416;59.258;18.128;2023-03-16T12:34:15;4.10;;;4.00;;
10729;SDS011;5416;59.258;18.128;2023-03-16T12:37:04;3.80;;;3.70;;
10729;SDS011;5416;59.258;18.128;2023-03-16T12:39:46;4.13;;;4.03;;
10729;SDS011;5416;59.258;18.128;2023-03-16T12:42:24;4.05;;;3.95;;
10729;SDS011;5416;59.258;18.128;2023-03-16T12:44:55;4.43;;;4.22;;
10729;SDS011;5416;59.258;18.128;2023-03-16T12:47:26;4.30;;;4.20;;
10729;SDS011;5416;59.258;18.128;2023-03-16T12:50:02;3.85;;;3.75;;
10729;SDS011;5416;59.258;18.128;2023-03-16T12:52:37;3.60;;;3.50;;
10729;SDS011;5416;59.258;18.128;2023-03-16T12:55:06;3.60;;;3.50;;
10729;SDS011;5416;59.258;18.128;2023-03-16T12:57:34;3.97;;;3.87;;
10729;SDS011;5416;59.258;18.128;2023-03-16T13:00:02;4.18;;;4.07;;
10729;SDS011;5416;59.258;18.128;2023-03-16T13:02:35;4.20;;;4.10;;
10729;SDS011;5416;59.258;18.128;2023-03-16T13:05:06;3.65;;;3.55;;
10729;SDS011;5416;59.258;18.128;2023-03-16T13:07:34;3.78;;;3.67;;
10729;SDS011;5416;59.258;18.128;2023-03-16T13:10:05;4.30;;;4.20;;
10729;SDS011;5416;59.258;18.128;2023-03-16T13:12:35;4.20;;;4.10;;
10729;SDS011;5416;59.258;18.128;2023-03-16T13:15:14;3.95;;;3.85;;
10729;SDS011;5416;59.258;18.128;2023-03-16T13:17:43;4.32;;;4.22;;
10729;SDS011;5416;59.258;18.128;2023-03-16T13:20:23;4.10;;;4.00;;
10729;SDS011;5416;59.258;18.128;2023-03-16T13:23:05;4.32;;;4.22;;
10729;SDS011;5416;59.258;18.128;2023-03-16T13:25:34;3.80;;;3.70;;
10729;SDS011;5416;59.258;18.128;2023-03-16T13:28:07;3.67;;;3.57;;
10729;SDS011;5416;59.258;18.128;2023-03-16T13:30:37;4.07;;;3.97;;
10729;SDS011;5416;59.258;18.128;2023-03-16T13:33:13;4.32;;;4.22;;
10729;SDS011;5416;59.258;18.128;2023-03-16T13:35:43;4.38;;;4.28;;
10729;SDS011;5416;59.258;18.128;2023-03-16T13:38:12;4.40;;;4.30;;
10729;SDS011;5416;59.258;18.128;2023-03-16T13:40:44;4.00;;;3.87;;
10729;SDS011;5416;59.258;18.128;2023-03-16T13:43:13;4.03;;;3.93;;
10729;SDS011;5416;59.258;18.128;2023-03-16T13:45:41;4.10;;;4.00;;
10729;SDS011;5416;59.258;18.128;2023-03-16T13:48:10;4.18;;;4.07;;
10729;SDS011;5416;59.258;18.128;2023-03-16T13:50:39;4.43;;;4.32;;
10729;SDS011;5416;59.258;18.128;2023-03-16T13:53:09;3.83;;;3.72;;
10729;SDS011;5416;59.258;18.128;2023-03-16T13:55:42;4.47;;;4.38;;
10729;SDS011;5416;59.258;18.128;2023-03-16T13:58:17;4.20;;;4.10;;
10729;SDS011;5416;59.258;18.128;2023-03-16T14:00:45;3.80;;;3.70;;
10729;SDS011;5416;59.258;18.128;2023-03-16T14:03:13;3.92;;;3.83;;
10729;SDS011;5416;59.258;18.128;2023-03-16T14:05:43;4.30;;;4.20;;
10729;SDS011;5416;59.258;18.128;2023-03-16T14:08:14;4.43;;;4.32;;
10729;SDS011;5416;59.258;18.128;2023-03-16T14:10:43;4.32;;;4.22;;
10729;SDS011;5416;59.258;18.128;2023-03-16T14:13:21;4.88;;;4.68;;
10729;SDS011;5416;59.258;18.128;2023-03-16T14:15:49;3.78;;;3.67;;
10729;SDS011;5416;59.258;18.128;2023-03-16T14:18:18;4.78;;;4.60;;
10729;SDS011;5416;59.258;18.128;2023-03-16T14:20:47;4.22;;;4.13;;
10729;SDS011;5416;59.258;18.128;2023-03-16T14:23:17;4.35;;;4.25;;
10729;SDS011;5416;59.258;18.128;2023-03-16T14:25:46;3.70;;;3.60;;
10729;SDS011;5416;59.258;18.128;2023-03-16T14:28:14;3.80;;;3.70;;
10729;SDS011;5416;59.258;18.128;2023-03-16T14:30:49;4.18;;;4.07;;
10729;SDS011;5416;59.258;18.128;2023-03-16T14:33:25;4.13;;;4.03;;
10729;SDS011;5416;59.258;18.128;2023-03-16T14:35:54;4.32;;;4.22;;
10729;SDS011;5416;59.258;18.128;2023-03-16T14:38:27;3.73;;;3.63;;
10729;SDS011;5416;59.258;18.128;2023-03-16T14:40:56;4.43;;;4.32;;
10729;SDS011;5416;59.258;18.128;2023-03-16T14:43:26;4.00;;;3.90;;
10729;SDS011;5416;59.258;18.128;2023-03-16T14:45:54;3.60;;;3.50;;
10729;SDS011;5416;59.258;18.128;2023-03-16T14:48:22;3.53;;;3.42;;
10729;SDS011;5416;59.258;18.128;2023-03-16T14:50:50;3.57;;;3.47;;
10729;SDS011;5416;59.258;18.128;2023-03-16T14:53:21;3.83;;;3.72;;
10729;SDS011;5416;59.258;18.128;2023-03-16T14:55:48;3.65;;;3.55;;
10729;SDS011;5416;59.258;18.128;2023-03-16T14:58:16;3.53;;;3.42;;
10729;SDS011;5416;59.258;18.128;2023-03-16T15:00:43;3.75;;;3.65;;
10729;SDS011;5416;59.258;18.128;2023-03-16T15:03:11;3.85;;;3.75;;
10729;SDS011;5416;59.258;18.128;2023-03-16T15:05:40;4.18;;;4.07;;